TimeCST,TemperatureF,Dew PointF,Humidity,Sea Level PressureIn,VisibilityMPH,Wind Direction,Wind SpeedMPH,Gust SpeedMPH,PrecipitationIn,Events,Conditions,WindDirDegrees,DateUTC
12:15 AM,45.3,44.4,97,29.69,2.0,SE,5.8,-,N/A,,Clear,130,2013-12-04 06:15:00
12:35 AM,45.1,44.2,97,29.69,1.8,SE,5.8,-,N/A,,Mist,140,2013-12-04 06:35:00
12:55 AM,44.8,44.1,97,29.69,1.0,SE,5.8,-,N/A,,Mist,130,2013-12-04 06:55:00
1:15 AM,45.0,44.4,98,29.68,0.5,SE,4.6,-,N/A,Fog,Fog,130,2013-12-04 07:15:00
1:35 AM,43.7,43.2,98,29.68,0.2,ESE,3.5,-,N/A,Fog,Fog,120,2013-12-04 07:35:00
1:55 AM,47.3,46.9,99,29.69,0.5,SSE,5.8,-,N/A,Fog,Fog,160,2013-12-04 07:55:00
2:15 AM,48.2,47.8,99,29.68,1.8,SSE,6.9,-,N/A,,Overcast,160,2013-12-04 08:15:00
2:35 AM,48.6,48.2,99,29.68,2.0,SSE,4.6,-,N/A,,Overcast,160,2013-12-04 08:35:00
2:55 AM,48.6,48.2,99,29.68,1.8,SE,5.8,-,N/A,,Overcast,140,2013-12-04 08:55:00
3:15 AM,48.4,48.2,99,29.67,1.2,SE,3.5,-,N/A,,Overcast,130,2013-12-04 09:15:00
3:35 AM,48.2,47.7,98,29.67,1.0,ESE,4.6,-,N/A,,Overcast,120,2013-12-04 09:35:00
3:55 AM,47.7,47.3,99,29.67,1.2,ESE,5.8,-,N/A,,Overcast,120,2013-12-04 09:55:00
4:15 AM,46.8,46.4,99,29.66,1.2,ESE,5.8,-,N/A,,Overcast,120,2013-12-04 10:15:00
4:35 AM,46.6,46.4,99,29.66,1.2,ESE,4.6,-,N/A,,Overcast,110,2013-12-04 10:35:00
4:55 AM,46.8,46.4,99,29.67,1.2,SE,3.5,-,N/A,,Overcast,130,2013-12-04 10:55:00
5:15 AM,46.9,46.6,99,29.66,1.0,ESE,3.5,-,N/A,,Overcast,120,2013-12-04 11:15:00
5:35 AM,47.3,46.9,99,29.65,0.8,ESE,5.8,-,N/A,,Overcast,110,2013-12-04 11:35:00
5:55 AM,47.7,47.3,99,29.64,1.0,ESE,8.1,-,N/A,,Overcast,110,2013-12-04 11:55:00
6:15 AM,48.7,48.4,99,29.65,1.5,SE,8.1,-,N/A,,Overcast,130,2013-12-04 12:15:00
6:35 AM,49.1,48.6,98,29.64,2.0,SE,8.1,-,N/A,,Overcast,130,2013-12-04 12:35:00
6:55 AM,49.1,48.6,98,29.65,2.5,SE,9.2,-,N/A,,Overcast,130,2013-12-04 12:55:00
7:15 AM,49.5,49.1,99,29.65,2.5,SE,6.9,-,N/A,,Overcast,140,2013-12-04 13:15:00
7:35 AM,49.6,49.3,99,29.65,1.8,SE,5.8,-,N/A,,Overcast,140,2013-12-04 13:35:00
7:55 AM,49.6,49.3,99,29.64,1.2,ESE,8.1,-,N/A,,Mostly Cloudy,120,2013-12-04 13:55:00
8:15 AM,50.0,49.5,98,29.63,2.0,SE,10.4,-,N/A,,Overcast,130,2013-12-04 14:15:00
8:35 AM,50.2,50.0,99,29.64,1.5,SE,8.1,-,N/A,,Overcast,130,2013-12-04 14:35:00
8:55 AM,50.5,50.2,99,29.64,1.2,SE,6.9,-,N/A,,Overcast,140,2013-12-04 14:55:00
9:15 AM,51.1,50.9,99,29.64,1.5,SE,6.9,-,N/A,,Overcast,130,2013-12-04 15:15:00
9:35 AM,52.0,51.8,99,29.63,0.8,SE,10.4,-,N/A,,Overcast,130,2013-12-04 15:35:00
9:55 AM,52.7,52.2,98,29.62,1.0,SE,12.7,-,N/A,,Overcast,130,2013-12-04 15:55:00
10:15 AM,52.9,52.7,99,29.60,0.5,SE,10.4,-,N/A,Fog,Fog,130,2013-12-04 16:15:00
10:35 AM,53.6,53.2,99,29.60,1.8,SE,12.7,-,N/A,,Overcast,140,2013-12-04 16:35:00
10:55 AM,53.8,53.6,99,29.60,1.8,SSE,10.4,-,N/A,,Overcast,150,2013-12-04 16:55:00
11:15 AM,53.8,53.6,99,29.58,1.0,SSE,9.2,-,N/A,,Overcast,150,2013-12-04 17:15:00
11:35 AM,53.8,53.6,99,29.58,1.0,South,10.4,-,N/A,,Overcast,170,2013-12-04 17:35:00
11:55 AM,54.3,53.8,98,29.56,1.0,South,11.5,17.3,N/A,,Overcast,180,2013-12-04 17:55:00
12:15 PM,54.5,54.0,98,29.55,3.0,South,12.7,-,N/A,,Overcast,180,2013-12-04 18:15:00
12:35 PM,55.0,54.5,98,29.53,5.0,South,10.4,18.4,N/A,,Overcast,180,2013-12-04 18:35:00
12:55 PM,55.4,53.6,94,29.52,5.0,South,13.8,-,N/A,,Mostly Cloudy,180,2013-12-04 18:55:00
1:15 PM,56.1,53.2,90,29.50,5.0,South,15.0,-,N/A,,Mostly Cloudy,170,2013-12-04 19:15:00
1:35 PM,56.7,52.9,87,29.51,5.0,SSW,13.8,19.6,N/A,,Mostly Cloudy,200,2013-12-04 19:35:00
1:55 PM,57.4,53.2,86,29.52,7.0,SSW,12.7,18.4,N/A,,Overcast,200,2013-12-04 19:55:00
2:15 PM,58.1,53.6,85,29.53,7.0,SSW,9.2,-,N/A,,Overcast,210,2013-12-04 20:15:00
2:35 PM,58.5,53.6,84,29.53,7.0,SSW,6.9,-,N/A,,Mostly Cloudy,200,2013-12-04 20:35:00
2:55 PM,59.0,53.6,82,29.54,7.0,SSW,8.1,-,N/A,,Mostly Cloudy,200,2013-12-04 20:55:00
3:15 PM,59.4,53.8,82,29.54,7.0,SSW,4.6,-,N/A,,Mostly Cloudy,200,2013-12-04 21:15:00
3:35 PM,59.9,53.8,80,29.54,10.0,South,3.5,-,N/A,,Scattered Clouds,190,2013-12-04 21:35:00
3:55 PM,59.0,53.4,82,29.56,10.0,SW,5.8,-,N/A,,Clear,220,2013-12-04 21:55:00
4:15 PM,57.7,52.9,84,29.57,10.0,SW,4.6,-,N/A,,Clear,220,2013-12-04 22:15:00
4:35 PM,56.5,52.2,85,29.57,10.0,SSW,6.9,-,N/A,,Clear,210,2013-12-04 22:35:00
4:55 PM,57.4,50.9,79,29.60,10.0,WSW,15.0,-,N/A,,Clear,250,2013-12-04 22:55:00
5:15 PM,56.3,47.7,73,29.62,10.0,West,12.7,20.7,N/A,,Mostly Cloudy,260,2013-12-04 23:15:00
5:35 PM,55.6,46.8,72,29.64,10.0,WSW,13.8,18.4,N/A,,Overcast,250,2013-12-04 23:35:00
5:55 PM,55.0,46.0,72,29.65,10.0,WSW,13.8,18.4,N/A,,Overcast,250,2013-12-04 23:55:00
6:15 PM,53.8,45.5,74,29.66,10.0,WSW,12.7,16.1,N/A,,Scattered Clouds,250,2013-12-05 00:15:00
6:35 PM,52.9,45.7,77,29.68,10.0,West,15.0,19.6,N/A,,Clear,260,2013-12-05 00:35:00
6:55 PM,50.5,45.0,81,29.70,10.0,WSW,12.7,19.6,N/A,,Clear,250,2013-12-05 00:55:00
7:15 PM,49.5,44.2,82,29.70,7.0,WSW,16.1,21.9,N/A,,Mostly Cloudy,250,2013-12-05 01:15:00
7:35 PM,46.9,42.3,84,29.70,7.0,West,17.3,26.5,N/A,,Overcast,260,2013-12-05 01:35:00
7:55 PM,45.7,39.9,80,29.73,10.0,West,15.0,-,N/A,,Mostly Cloudy,270,2013-12-05 01:55:00
8:15 PM,45.0,39.6,81,29.74,10.0,West,15.0,20.7,N/A,,Overcast,260,2013-12-05 02:15:00
8:35 PM,44.4,38.7,80,29.76,10.0,West,12.7,21.9,N/A,,Overcast,260,2013-12-05 02:35:00
8:55 PM,42.8,37.2,81,29.77,10.0,WSW,15.0,25.3,N/A,,Overcast,250,2013-12-05 02:55:00
9:15 PM,41.5,36.0,81,29.80,10.0,West,12.7,23.0,N/A,,Overcast,260,2013-12-05 03:15:00
9:35 PM,40.1,34.5,80,29.81,10.0,West,15.0,23.0,N/A,,Overcast,260,2013-12-05 03:35:00
9:55 PM,39.2,33.4,80,29.82,10.0,West,17.3,25.3,N/A,,Overcast,270,2013-12-05 03:55:00
10:15 PM,38.5,33.3,81,29.82,10.0,West,13.8,18.4,N/A,,Overcast,270,2013-12-05 04:15:00
10:35 PM,37.6,32.2,81,29.83,10.0,West,16.1,21.9,N/A,,Overcast,260,2013-12-05 04:35:00
10:55 PM,36.5,31.3,81,29.85,10.0,West,16.1,21.9,N/A,,Overcast,270,2013-12-05 04:55:00
11:15 PM,35.6,30.4,81,29.85,10.0,West,15.0,21.9,N/A,,Overcast,260,2013-12-05 05:15:00
11:35 PM,34.3,29.8,84,29.86,10.0,West,16.1,21.9,N/A,,Overcast,270,2013-12-05 05:35:00
11:55 PM,33.8,29.3,84,29.87,10.0,West,17.3,21.9,N/A,,Overcast,270,2013-12-05 05:55:00